sensor_id;sensor_type;location;lat;lon;timestamp;P1;durP1;ratioP1;P2;durP2;ratioP2
33810;SDS011;20119;48.334;16.206;2023-08-30T00:02:38;5.90;;;5.30;;
33810;SDS011;20119;48.334;16.206;2023-08-30T00:05:13;5.50;;;5.00;;
33810;SDS011;20119;48.334;16.206;2023-08-30T00:07:44;5.72;;;5.22;;
33810;SDS011;20119;48.334;16.206;2023-08-30T00:10:17;6.32;;;5.55;;
33810;SDS011;20119;48.334;16.206;2023-08-30T00:17:59;5.32;;;4.93;;
33810;SDS011;20119;48.334;16.206;2023-08-30T00:20:28;5.75;;;5.25;;
33810;SDS011;20119;48.334;16.206;2023-08-30T00:22:57;6.35;;;5.05;;
33810;SDS011;20119;48.334;16.206;2023-08-30T00:25:28;6.47;;;5.10;;
33810;SDS011;20119;48.334;16.206;2023-08-30T00:27:57;5.15;;;4.75;;
33810;SDS011;20119;48.334;16.206;2023-08-30T00:30:25;6.00;;;5.40;;
33810;SDS011;20119;48.334;16.206;2023-08-30T00:32:56;5.88;;;5.38;;
33810;SDS011;20119;48.334;16.206;2023-08-30T00:56:17;6.25;;;5.72;;
33810;SDS011;20119;48.334;16.206;2023-08-30T00:59:07;6.47;;;5.88;;
33810;SDS011;20119;48.334;16.206;2023-08-30T01:01:37;6.93;;;6.32;;
33810;SDS011;20119;48.334;16.206;2023-08-30T01:04:12;5.68;;;5.18;;
33810;SDS011;20119;48.334;16.206;2023-08-30T01:06:42;6.30;;;5.75;;
33810;SDS011;20119;48.334;16.206;2023-08-30T01:43:27;4.90;;;4.40;;
33810;SDS011;20119;48.334;16.206;2023-08-30T02:37:46;5.18;;;4.57;;
33810;SDS011;20119;48.334;16.206;2023-08-30T02:40:21;5.20;;;4.70;;
33810;SDS011;20119;48.334;16.206;2023-08-30T02:42:53;5.40;;;4.95;;
33810;SDS011;20119;48.334;16.206;2023-08-30T02:45:23;6.00;;;5.35;;
33810;SDS011;20119;48.334;16.206;2023-08-30T02:47:55;5.78;;;5.28;;
33810;SDS011;20119;48.334;16.206;2023-08-30T02:50:25;6.05;;;5.25;;
33810;SDS011;20119;48.334;16.206;2023-08-30T03:03:22;6.03;;;5.07;;
33810;SDS011;20119;48.334;16.206;2023-08-30T03:05:58;6.38;;;5.45;;
33810;SDS011;20119;48.334;16.206;2023-08-30T03:08:29;5.88;;;5.10;;
33810;SDS011;20119;48.334;16.206;2023-08-30T03:11:07;5.90;;;5.30;;
33810;SDS011;20119;48.334;16.206;2023-08-30T03:13:39;5.30;;;4.80;;
33810;SDS011;20119;48.334;16.206;2023-08-30T03:16:12;5.20;;;4.72;;
33810;SDS011;20119;48.334;16.206;2023-08-30T03:18:47;5.25;;;4.78;;
33810;SDS011;20119;48.334;16.206;2023-08-30T03:21:19;4.88;;;4.38;;
33810;SDS011;20119;48.334;16.206;2023-08-30T03:23:53;4.78;;;4.32;;
33810;SDS011;20119;48.334;16.206;2023-08-30T03:26:25;6.70;;;4.40;;
33810;SDS011;20119;48.334;16.206;2023-08-30T03:28:59;4.70;;;4.20;;
33810;SDS011;20119;48.334;16.206;2023-08-30T03:31:36;4.72;;;4.18;;
33810;SDS011;20119;48.334;16.206;2023-08-30T03:34:16;4.75;;;4.35;;
33810;SDS011;20119;48.334;16.206;2023-08-30T03:36:47;5.00;;;4.35;;
33810;SDS011;20119;48.334;16.206;2023-08-30T05:15:12;7.18;;;6.47;;
33810;SDS011;20119;48.334;16.206;2023-08-30T06:20:07;7.90;;;7.10;;
33810;SDS011;20119;48.334;16.206;2023-08-30T06:38:20;6.80;;;6.20;;
33810;SDS011;20119;48.334;16.206;2023-08-30T06:40:52;6.60;;;6.00;;
33810;SDS011;20119;48.334;16.206;2023-08-30T07:12:01;5.30;;;4.90;;
33810;SDS011;20119;48.334;16.206;2023-08-30T07:14:35;5.20;;;4.80;;
33810;SDS011;20119;48.334;16.206;2023-08-30T07:27:31;4.18;;;3.80;;
33810;SDS011;20119;48.334;16.206;2023-08-30T07:32:44;3.40;;;3.10;;
33810;SDS011;20119;48.334;16.206;2023-08-30T07:35:17;3.03;;;2.83;;
33810;SDS011;20119;48.334;16.206;2023-08-30T07:40:23;3.03;;;2.78;;
33810;SDS011;20119;48.334;16.206;2023-08-30T08:03:55;2.00;;;1.80;;
33810;SDS011;20119;48.334;16.206;2023-08-30T08:06:25;1.40;;;1.30;;
33810;SDS011;20119;48.334;16.206;2023-08-30T08:08:54;1.67;;;1.23;;
33810;SDS011;20119;48.334;16.206;2023-08-30T08:11:26;1.40;;;1.23;;
33810;SDS011;20119;48.334;16.206;2023-08-30T08:14:07;1.20;;;1.10;;
33810;SDS011;20119;48.334;16.206;2023-08-30T08:29:50;2.00;;;1.00;;
33810;SDS011;20119;48.334;16.206;2023-08-30T08:35:09;0.90;;;0.90;;
33810;SDS011;20119;48.334;16.206;2023-08-30T08:48:11;1.00;;;0.90;;
33810;SDS011;20119;48.334;16.206;2023-08-30T08:50:48;2.28;;;1.00;;
33810;SDS011;20119;48.334;16.206;2023-08-30T08:53:30;1.00;;;0.90;;
33810;SDS011;20119;48.334;16.206;2023-08-30T08:56:10;1.50;;;0.80;;
33810;SDS011;20119;48.334;16.206;2023-08-30T09:40:17;0.70;;;0.70;;
33810;SDS011;20119;48.334;16.206;2023-08-30T09:42:51;0.60;;;0.60;;
33810;SDS011;20119;48.334;16.206;2023-08-30T09:45:32;0.68;;;0.60;;
33810;SDS011;20119;48.334;16.206;2023-08-30T09:48:07;0.50;;;0.50;;
33810;SDS011;20119;48.334;16.206;2023-08-30T09:50:37;1.00;;;0.70;;
33810;SDS011;20119;48.334;16.206;2023-08-30T09:53:11;1.45;;;0.60;;
33810;SDS011;20119;48.334;16.206;2023-08-30T09:55:50;0.68;;;0.68;;
33810;SDS011;20119;48.334;16.206;2023-08-30T09:58:28;0.80;;;0.80;;
33810;SDS011;20119;48.334;16.206;2023-08-30T10:01:04;0.50;;;0.50;;
33810;SDS011;20119;48.334;16.206;2023-08-30T10:06:06;0.70;;;0.70;;
33810;SDS011;20119;48.334;16.206;2023-08-30T10:08:42;0.85;;;0.85;;
33810;SDS011;20119;48.334;16.206;2023-08-30T10:11:19;0.75;;;0.75;;
33810;SDS011;20119;48.334;16.206;2023-08-30T10:13:58;0.70;;;0.70;;
33810;SDS011;20119;48.334;16.206;2023-08-30T12:03:03;2.03;;;1.80;;
33810;SDS011;20119;48.334;16.206;2023-08-30T13:49:21;0.77;;;0.77;;
33810;SDS011;20119;48.334;16.206;2023-08-30T16:28:54;1.73;;;1.60;;
33810;SDS011;20119;48.334;16.206;2023-08-30T16:31:31;1.42;;;1.33;;
33810;SDS011;20119;48.334;16.206;2023-08-30T17:02:50;1.65;;;1.20;;
33810;SDS011;20119;48.334;16.206;2023-08-30T17:05:23;1.55;;;1.20;;
33810;SDS011;20119;48.334;16.206;2023-08-30T17:07:53;1.27;;;1.17;;
33810;SDS011;20119;48.334;16.206;2023-08-30T17:10:26;1.80;;;1.20;;
33810;SDS011;20119;48.334;16.206;2023-08-30T17:12:57;1.27;;;1.17;;
33810;SDS011;20119;48.334;16.206;2023-08-30T17:15:31;1.35;;;1.08;;
33810;SDS011;20119;48.334;16.206;2023-08-30T17:23:25;2.47;;;1.50;;
33810;SDS011;20119;48.334;16.206;2023-08-30T17:25:57;1.40;;;1.30;;
33810;SDS011;20119;48.334;16.206;2023-08-30T17:28:27;1.57;;;1.40;;
33810;SDS011;20119;48.334;16.206;2023-08-30T17:30:56;3.22;;;1.98;;
33810;SDS011;20119;48.334;16.206;2023-08-30T17:33:27;2.00;;;1.50;;
33810;SDS011;20119;48.334;16.206;2023-08-30T17:35:59;3.35;;;2.33;;
33810;SDS011;20119;48.334;16.206;2023-08-30T17:38:33;1.90;;;1.60;;
33810;SDS011;20119;48.334;16.206;2023-08-30T17:41:08;2.42;;;1.70;;
33810;SDS011;20119;48.334;16.206;2023-08-30T17:43:39;6.80;;;1.95;;
33810;SDS011;20119;48.334;16.206;2023-08-30T17:46:12;2.95;;;1.90;;
33810;SDS011;20119;48.334;16.206;2023-08-30T17:48:42;1.70;;;1.60;;
33810;SDS011;20119;48.334;16.206;2023-08-30T17:51:15;1.90;;;1.80;;
33810;SDS011;20119;48.334;16.206;2023-08-30T17:53:47;1.95;;;1.60;;
33810;SDS011;20119;48.334;16.206;2023-08-30T17:56:15;3.92;;;1.98;;
33810;SDS011;20119;48.334;16.206;2023-08-30T17:58:48;2.28;;;1.70;;
33810;SDS011;20119;48.334;16.206;2023-08-30T18:01:19;2.20;;;2.00;;
33810;SDS011;20119;48.334;16.206;2023-08-30T18:03:53;2.25;;;2.05;;
33810;SDS011;20119;48.334;16.206;2023-08-30T18:06:23;2.28;;;1.90;;
33810;SDS011;20119;48.334;16.206;2023-08-30T18:08:53;2.40;;;2.20;;
33810;SDS011;20119;48.334;16.206;2023-08-30T18:11:23;2.30;;;2.10;;
33810;SDS011;20119;48.334;16.206;2023-08-30T18:13:54;2.92;;;2.35;;
33810;SDS011;20119;48.334;16.206;2023-08-30T18:16:23;2.80;;;2.33;;
33810;SDS011;20119;48.334;16.206;2023-08-30T18:18:53;2.88;;;2.42;;
33810;SDS011;20119;48.334;16.206;2023-08-30T18:21:22;5.93;;;2.42;;
33810;SDS011;20119;48.334;16.206;2023-08-30T18:26:46;4.03;;;2.50;;
33810;SDS011;20119;48.334;16.206;2023-08-30T18:29:17;3.30;;;2.58;;
33810;SDS011;20119;48.334;16.206;2023-08-30T18:31:49;2.40;;;2.13;;
33810;SDS011;20119;48.334;16.206;2023-08-30T18:34:19;2.88;;;2.45;;
33810;SDS011;20119;48.334;16.206;2023-08-30T18:39:27;2.60;;;2.40;;
33810;SDS011;20119;48.334;16.206;2023-08-30T18:42:03;2.50;;;2.30;;
33810;SDS011;20119;48.334;16.206;2023-08-30T18:45:03;4.05;;;2.40;;
33810;SDS011;20119;48.334;16.206;2023-08-30T18:47:48;2.35;;;2.00;;
33810;SDS011;20119;48.334;16.206;2023-08-30T18:50:17;2.70;;;2.20;;
33810;SDS011;20119;48.334;16.206;2023-08-30T18:52:47;2.97;;;2.40;;
33810;SDS011;20119;48.334;16.206;2023-08-30T18:55:20;2.45;;;2.10;;
33810;SDS011;20119;48.334;16.206;2023-08-30T18:57:49;2.92;;;2.20;;
33810;SDS011;20119;48.334;16.206;2023-08-30T19:00:18;2.85;;;2.28;;
33810;SDS011;20119;48.334;16.206;2023-08-30T19:02:51;3.15;;;2.55;;
33810;SDS011;20119;48.334;16.206;2023-08-30T19:05:21;2.85;;;2.33;;
33810;SDS011;20119;48.334;16.206;2023-08-30T19:07:52;4.43;;;2.45;;
33810;SDS011;20119;48.334;16.206;2023-08-30T19:10:26;3.47;;;2.53;;
33810;SDS011;20119;48.334;16.206;2023-08-30T19:54:31;4.85;;;3.20;;
33810;SDS011;20119;48.334;16.206;2023-08-30T20:02:13;3.35;;;3.03;;
33810;SDS011;20119;48.334;16.206;2023-08-30T20:07:21;3.33;;;3.03;;
33810;SDS011;20119;48.334;16.206;2023-08-30T20:12:51;4.50;;;3.33;;
33810;SDS011;20119;48.334;16.206;2023-08-30T20:15:29;3.00;;;2.80;;
33810;SDS011;20119;48.334;16.206;2023-08-30T20:18:14;3.25;;;2.95;;
33810;SDS011;20119;48.334;16.206;2023-08-30T20:25:59;3.83;;;3.40;;
33810;SDS011;20119;48.334;16.206;2023-08-30T20:28:39;3.85;;;3.50;;
33810;SDS011;20119;48.334;16.206;2023-08-30T20:31:12;5.15;;;3.50;;
33810;SDS011;20119;48.334;16.206;2023-08-30T20:33:44;3.67;;;3.38;;
33810;SDS011;20119;48.334;16.206;2023-08-30T20:39:03;3.42;;;3.13;;
33810;SDS011;20119;48.334;16.206;2023-08-30T20:41:32;4.37;;;3.40;;
33810;SDS011;20119;48.334;16.206;2023-08-30T20:44:07;3.95;;;3.55;;
33810;SDS011;20119;48.334;16.206;2023-08-30T20:46:38;3.85;;;3.55;;
33810;SDS011;20119;48.334;16.206;2023-08-30T21:02:17;4.43;;;3.75;;
33810;SDS011;20119;48.334;16.206;2023-08-30T21:04:48;4.63;;;4.05;;
33810;SDS011;20119;48.334;16.206;2023-08-30T21:22:55;3.67;;;3.30;;
33810;SDS011;20119;48.334;16.206;2023-08-30T21:25:33;3.72;;;3.40;;
33810;SDS011;20119;48.334;16.206;2023-08-30T21:28:05;3.72;;;3.22;;
33810;SDS011;20119;48.334;16.206;2023-08-30T21:30:39;3.78;;;3.45;;
33810;SDS011;20119;48.334;16.206;2023-08-30T21:33:14;4.30;;;3.90;;
33810;SDS011;20119;48.334;16.206;2023-08-30T21:35:49;4.25;;;3.38;;
33810;SDS011;20119;48.334;16.206;2023-08-30T21:38:32;3.53;;;3.22;;
33810;SDS011;20119;48.334;16.206;2023-08-30T21:41:10;3.70;;;3.40;;
33810;SDS011;20119;48.334;16.206;2023-08-30T21:43:41;4.22;;;3.50;;
33810;SDS011;20119;48.334;16.206;2023-08-30T21:46:12;3.22;;;3.00;;
33810;SDS011;20119;48.334;16.206;2023-08-30T21:48:42;3.58;;;3.10;;
33810;SDS011;20119;48.334;16.206;2023-08-30T21:51:12;4.25;;;3.30;;
33810;SDS011;20119;48.334;16.206;2023-08-30T21:53:53;3.65;;;3.35;;
33810;SDS011;20119;48.334;16.206;2023-08-30T21:56:21;3.90;;;3.50;;
33810;SDS011;20119;48.334;16.206;2023-08-30T21:58:53;3.40;;;3.10;;
33810;SDS011;20119;48.334;16.206;2023-08-30T22:01:23;3.00;;;2.80;;
33810;SDS011;20119;48.334;16.206;2023-08-30T22:03:53;4.95;;;3.53;;
33810;SDS011;20119;48.334;16.206;2023-08-30T22:06:33;4.25;;;3.15;;
33810;SDS011;20119;48.334;16.206;2023-08-30T22:09:07;3.75;;;3.00;;
33810;SDS011;20119;48.334;16.206;2023-08-30T22:11:37;3.53;;;3.22;;
33810;SDS011;20119;48.334;16.206;2023-08-30T22:14:05;3.67;;;3.37;;
33810;SDS011;20119;48.334;16.206;2023-08-30T22:21:47;3.50;;;3.20;;
33810;SDS011;20119;48.334;16.206;2023-08-30T22:24:22;3.50;;;3.20;;
33810;SDS011;20119;48.334;16.206;2023-08-30T22:40:00;5.07;;;3.20;;
33810;SDS011;20119;48.334;16.206;2023-08-30T22:42:35;3.30;;;3.00;;
33810;SDS011;20119;48.334;16.206;2023-08-30T22:45:09;3.75;;;2.90;;
33810;SDS011;20119;48.334;16.206;2023-08-30T22:47:38;4.28;;;3.00;;
33810;SDS011;20119;48.334;16.206;2023-08-30T22:55:25;3.20;;;2.90;;
33810;SDS011;20119;48.334;16.206;2023-08-30T22:57:54;3.35;;;3.05;;
33810;SDS011;20119;48.334;16.206;2023-08-30T23:00:27;3.20;;;2.88;;
33810;SDS011;20119;48.334;16.206;2023-08-30T23:03:05;3.13;;;2.92;;
33810;SDS011;20119;48.334;16.206;2023-08-30T23:05:39;3.25;;;2.95;;
33810;SDS011;20119;48.334;16.206;2023-08-30T23:21:27;3.45;;;3.15;;
33810;SDS011;20119;48.334;16.206;2023-08-30T23:23:59;3.38;;;3.08;;
33810;SDS011;20119;48.334;16.206;2023-08-30T23:26:30;3.50;;;3.20;;
33810;SDS011;20119;48.334;16.206;2023-08-30T23:29:04;3.42;;;3.13;;
33810;SDS011;20119;48.334;16.206;2023-08-30T23:31:40;3.20;;;2.90;;
33810;SDS011;20119;48.334;16.206;2023-08-30T23:36:48;3.10;;;2.90;;
33810;SDS011;20119;48.334;16.206;2023-08-30T23:39:18;3.90;;;2.97;;
33810;SDS011;20119;48.334;16.206;2023-08-30T23:41:46;4.80;;;3.20;;
33810;SDS011;20119;48.334;16.206;2023-08-30T23:44:20;3.13;;;2.92;;
33810;SDS011;20119;48.334;16.206;2023-08-30T23:46:49;3.30;;;3.00;;
33810;SDS011;20119;48.334;16.206;2023-08-30T23:49:18;3.15;;;2.85;;
33810;SDS011;20119;48.334;16.206;2023-08-30T23:54:20;3.40;;;3.10;;
33810;SDS011;20119;48.334;16.206;2023-08-30T23:56:49;4.17;;;3.27;;
33810;SDS011;20119;48.334;16.206;2023-08-30T23:59:20;3.80;;;3.50;;
